Time;durP1;ratioP1;P1;durP2;ratioP2;P2;SDS_P1;SDS_P2;PMS_P1;PMS_P2;Temp;Humidity;BMP_temperature;BMP_pressure;BME280_temperature;BME280_humidity;BME280_pressure;Samples;Min_cycle;Max_cycle;Signal;HPM_P1;HPM_P2
2024/02/21 00:00:56;;;;;;;23.55;15.80;;;-7.20;99.40;;;;;;5054571;28;20481;-77
2024/02/21 00:03:22;;;;;;;27.15;14.23;;;-7.20;99.40;;;;;;5071829;28;20045;-77
2024/02/21 00:05:48;;;;;;;20.88;13.52;;;-7.20;99.40;;;;;;5054306;28;20020;-78
2024/02/21 00:08:14;;;;;;;26.15;15.23;;;-7.20;99.40;;;;;;5053918;28;20024;-77
2024/02/21 00:10:40;;;;;;;20.90;14.10;;;-7.20;99.70;;;;;;5058664;28;20032;-78
2024/02/21 00:13:05;;;;;;;26.85;16.52;;;-7.20;99.50;;;;;;5072013;28;20027;-77
2024/02/21 00:15:31;;;;;;;23.90;15.48;;;-7.20;99.40;;;;;;5053775;28;20191;-76
2024/02/21 00:17:57;;;;;;;25.13;17.13;;;-7.20;99.40;;;;;;5071781;28;20386;-79
2024/02/21 00:20:25;;;;;;;28.30;17.23;;;-7.20;99.40;;;;;;5071630;28;20029;-79
2024/02/21 00:22:51;;;;;;;25.20;16.55;;;-7.10;99.40;;;;;;5054152;28;20512;-78
2024/02/21 00:25:17;;;;;;;29.38;17.75;;;-7.10;99.40;;;;;;5072017;28;20056;-79
2024/02/21 00:27:43;;;;;;;26.35;16.05;;;-7.10;99.30;;;;;;5072068;28;20373;-78
2024/02/21 00:30:10;;;;;;;26.80;15.98;;;-7.10;99.40;;;;;;5072398;28;20059;-79
2024/02/21 00:32:36;;;;;;;29.20;15.77;;;-7.10;99.30;;;;;;5072333;28;20124;-78
2024/02/21 00:35:02;;;;;;;28.15;15.43;;;-7.10;99.40;;;;;;5072326;28;20029;-78
2024/02/21 00:37:28;;;;;;;33.92;16.92;;;-7.10;99.40;;;;;;5072588;28;20106;-79
2024/02/21 00:39:56;;;;;;;26.55;17.80;;;-7.00;99.50;;;;;;5072037;28;20016;-79
2024/02/21 00:42:22;;;;;;;23.80;14.65;;;-6.90;99.50;;;;;;5071939;28;20074;-79
2024/02/21 00:44:48;;;;;;;26.27;15.43;;;-6.90;99.50;;;;;;5054492;28;20020;-78
2024/02/21 00:47:14;;;;;;;23.33;14.02;;;-6.80;99.50;;;;;;5073312;28;20055;-79
2024/02/21 00:49:40;;;;;;;27.83;16.85;;;-6.70;99.40;;;;;;5072095;28;20025;-79
2024/02/21 00:52:06;;;;;;;19.42;12.95;;;-6.60;99.40;;;;;;5071547;28;20020;-78
2024/02/21 00:54:32;;;;;;;26.13;15.18;;;-6.50;99.30;;;;;;5071678;28;20031;-79
2024/02/21 00:56:58;;;;;;;21.65;14.82;;;-6.50;99.20;;;;;;5053388;28;20032;-79
2024/02/21 00:59:24;;;;;;;26.88;15.35;;;-6.50;99.20;;;;;;5072906;28;20041;-78
2024/02/21 01:01:49;;;;;;;23.08;16.30;;;-6.40;99.10;;;;;;5075958;28;20027;-79
2024/02/21 01:04:15;;;;;;;22.15;14.70;;;-6.40;99.00;;;;;;5075807;28;20071;-79
2024/02/21 01:06:43;;;;;;;24.58;15.48;;;-6.40;99.00;;;;;;5076132;28;20077;-80
2024/02/21 01:09:10;;;;;;;20.83;14.07;;;-6.40;98.90;;;;;;5075934;28;20025;-78
2024/02/21 01:11:36;;;;;;;21.92;14.57;;;-6.40;98.80;;;;;;5078366;28;20028;-78
2024/02/21 01:14:02;;;;;;;25.13;15.27;;;-6.40;98.70;;;;;;5067627;28;20100;-79
2024/02/21 01:16:28;;;;;;;23.27;14.85;;;-6.40;98.70;;;;;;5075652;28;20032;-80
2024/02/21 01:18:54;;;;;;;23.30;14.80;;;-6.40;98.80;;;;;;5075534;28;20017;-79
2024/02/21 01:21:20;;;;;;;31.85;14.38;;;-6.40;98.80;;;;;;5075106;28;20033;-80
2024/02/21 01:23:46;;;;;;;25.63;14.88;;;-6.30;98.80;;;;;;5057712;28;20021;-78
2024/02/21 01:26:14;;;;;;;21.30;14.82;;;-6.30;98.60;;;;;;5056929;28;20120;-80
2024/02/21 01:28:40;;;;;;;22.23;14.80;;;-6.30;98.50;;;;;;5075698;28;20024;-79
2024/02/21 01:31:06;;;;;;;21.43;13.50;;;-6.20;98.60;;;;;;5075151;28;20126;-78
2024/02/21 01:33:34;;;;;;;24.17;14.27;;;-6.20;98.50;;;;;;5075024;28;20048;-79
2024/02/21 01:36:02;;;;;;;24.20;15.10;;;-6.20;98.50;;;;;;5075437;28;20031;-79
2024/02/21 01:38:28;;;;;;;;;;;-6.10;98.40;;;;;;5057798;28;20543;-81
2024/02/21 01:40:54;;;;;;;21.13;14.02;;;-6.20;98.20;;;;;;5075048;28;19912;-80
2024/02/21 01:43:20;;;;;;;23.58;13.27;;;-6.20;98.20;;;;;;5074949;28;20029;-79
2024/02/21 01:45:49;;;;;;;22.83;15.32;;;-6.20;98.40;;;;;;5074784;28;20024;-79
2024/02/21 01:48:20;;;;;;;19.50;14.00;;;-6.20;98.30;;;;;;5073188;28;20025;-79
2024/02/21 01:50:54;;;;;;;23.48;13.35;;;-6.20;98.40;;;;;;5074467;28;20039;-79
2024/02/21 01:53:32;;;;;;;17.50;11.00;;;-6.20;98.50;;;;;;5074030;28;20016;-79
2024/02/21 01:55:58;;;;;;;27.45;16.88;;;-6.20;98.30;;;;;;5074924;28;20024;-80
2024/02/21 01:58:24;;;;;;;20.05;12.95;;;-6.20;98.40;;;;;;5074845;28;20082;-78
2024/02/21 02:00:50;;;;;;;21.95;14.82;;;-6.20;98.50;;;;;;5074623;28;20028;-78
2024/02/21 02:03:16;;;;;;;22.55;14.40;;;-6.10;98.50;;;;;;5073964;28;20044;-79
2024/02/21 02:05:50;;;;;;;19.33;13.30;;;-6.10;98.60;;;;;;5074636;28;20565;-78
2024/02/21 02:08:17;;;;;;;19.83;13.00;;;-6.00;98.60;;;;;;5074238;28;20077;-79
2024/02/21 02:10:44;;;;;;;24.00;13.63;;;-5.90;98.50;;;;;;5072701;28;20493;-80
2024/02/21 02:13:10;;;;;;;21.27;13.97;;;-5.80;98.50;;;;;;5074177;28;20575;-80
2024/02/21 02:15:40;;;;;;;17.40;14.10;;;-5.80;98.40;;;;;;5074070;28;20296;-80
2024/02/21 02:18:07;;;;;;;20.25;13.45;;;-5.80;98.30;;;;;;5076332;28;20740;-79
2024/02/21 02:20:33;;;;;;;23.40;14.15;;;-5.80;98.20;;;;;;5081002;28;20025;-79
2024/02/21 02:23:14;;;;;;;18.73;12.13;;;-5.80;98.30;;;;;;5074924;28;20103;-80
2024/02/21 02:25:40;;;;;;;24.13;14.38;;;-5.80;98.40;;;;;;5075228;28;20474;-80
2024/02/21 02:28:07;;;;;;;22.38;15.32;;;-5.80;98.30;;;;;;5077884;28;20036;-80
2024/02/21 02:30:34;;;;;;;20.83;12.20;;;-5.80;98.30;;;;;;5073754;28;20401;-80
2024/02/21 02:33:00;;;;;;;21.00;14.65;;;-5.70;98.40;;;;;;5073986;28;20027;-79
2024/02/21 02:35:26;;;;;;;20.80;13.18;;;-5.70;98.40;;;;;;5074598;28;20028;-80
2024/02/21 02:37:52;;;;;;;19.75;13.07;;;-5.70;98.30;;;;;;5075708;28;20028;-80
2024/02/21 02:40:18;;;;;;;23.73;14.55;;;-5.70;98.30;;;;;;5076541;28;20038;-79
2024/02/21 02:42:44;;;;;;;20.42;13.95;;;-5.70;98.40;;;;;;5075303;28;20045;-80
2024/02/21 02:45:10;;;;;;;20.25;12.23;;;-5.60;98.30;;;;;;5074639;28;20061;-79
2024/02/21 02:47:36;;;;;;;21.95;12.75;;;-5.60;98.20;;;;;;5073882;28;20405;-80
2024/02/21 02:50:02;;;;;;;19.58;13.52;;;-5.70;98.30;;;;;;5073425;28;20079;-78
2024/02/21 02:52:28;;;;;;;26.02;14.88;;;-5.70;98.30;;;;;;5073304;28;20020;-79
2024/02/21 02:54:55;;;;;;;22.67;12.73;;;-5.70;98.40;;;;;;5074531;28;20099;-79
2024/02/21 02:57:21;;;;;;;;;;;-5.60;98.40;;;;;;5062536;28;20024;-80
2024/02/21 02:59:48;;;;;;;24.55;14.77;;;-5.60;98.30;;;;;;5079225;28;19911;-79
2024/02/21 03:02:14;;;;;;;21.65;12.75;;;-5.70;98.30;;;;;;5074095;28;20488;-79
2024/02/21 03:04:40;;;;;;;19.05;12.75;;;-5.60;98.30;;;;;;5056516;28;20109;-79
2024/02/21 03:07:06;;;;;;;19.92;9.75;;;-5.70;98.20;;;;;;5056169;28;20143;-79
2024/02/21 03:09:32;;;;;;;19.58;13.38;;;-5.70;98.20;;;;;;5073099;28;20498;-80
2024/02/21 03:12:02;;;;;;;25.83;13.60;;;-5.80;98.30;;;;;;5074482;28;20027;-79
2024/02/21 03:14:30;;;;;;;18.65;10.30;;;-5.80;98.40;;;;;;5074846;28;20066;-80
2024/02/21 03:16:59;;;;;;;23.58;15.18;;;-5.80;98.50;;;;;;5077080;28;20084;-79
2024/02/21 03:19:25;;;;;;;25.30;15.73;;;-5.80;98.50;;;;;;5076555;28;20012;-79
2024/02/21 03:21:52;;;;;;;16.23;9.63;;;-5.80;98.60;;;;;;5074431;28;20055;-80
2024/02/21 03:24:19;;;;;;;21.00;13.18;;;-5.70;98.60;;;;;;5054782;28;20070;-79
2024/02/21 03:26:47;;;;;;;23.85;14.30;;;-5.80;98.80;;;;;;5053779;28;20032;-79
2024/02/21 03:29:14;;;;;;;27.05;14.23;;;-5.70;98.60;;;;;;5072459;28;20020;-78
2024/02/21 03:31:40;;;;;;;22.90;13.07;;;-5.70;98.70;;;;;;5072929;28;20053;-79
2024/02/21 03:34:05;;;;;;;20.05;10.85;;;-5.60;98.80;;;;;;5073122;28;20144;-80
2024/02/21 03:36:31;;;;;;;25.00;14.98;;;-5.50;98.80;;;;;;5072785;28;20016;-78
2024/02/21 03:38:57;;;;;;;23.27;14.48;;;-5.60;98.60;;;;;;5072944;28;20393;-81
2024/02/21 03:41:23;;;;;;;21.83;11.52;;;-5.60;98.50;;;;;;5072768;28;20024;-79
2024/02/21 03:43:49;;;;;;;22.17;12.10;;;-5.60;98.50;;;;;;5054316;28;20025;-79
2024/02/21 03:46:15;;;;;;;22.17;13.35;;;-5.70;98.60;;;;;;5073160;28;20025;-79
2024/02/21 03:48:41;;;;;;;26.23;14.70;;;-5.60;98.80;;;;;;5067105;28;20021;-80
2024/02/21 03:51:07;;;;;;;26.77;15.20;;;-5.50;98.90;;;;;;5072749;28;20036;-79
2024/02/21 03:53:33;;;;;;;19.23;14.43;;;-5.50;98.60;;;;;;5054380;28;20032;-77
2024/02/21 03:56:03;;;;;;;23.10;15.32;;;-5.50;98.60;;;;;;5072210;28;20033;-80
2024/02/21 03:58:32;;;;;;;21.27;13.35;;;-5.50;98.70;;;;;;5059137;28;20032;-78
2024/02/21 04:01:03;;;;;;;21.73;14.05;;;-5.50;98.80;;;;;;5054647;28;20031;-79
2024/02/21 04:03:30;;;;;;;25.10;14.43;;;-5.50;98.70;;;;;;5053275;28;20041;-80
2024/02/21 04:05:56;;;;;;;20.73;14.38;;;-5.50;98.70;;;;;;5064514;28;20008;-79
2024/02/21 04:08:23;;;;;;;21.83;14.18;;;-5.50;98.70;;;;;;5072071;28;20029;-79
2024/02/21 04:10:49;;;;;;;24.75;16.55;;;-5.50;98.70;;;;;;5072219;28;20035;-78
2024/02/21 04:13:16;;;;;;;;;;;-5.50;98.70;;;;;;5072406;28;20040;-79
2024/02/21 04:15:42;;;;;;;25.23;13.77;;;-5.50;98.70;;;;;;5072306;28;19964;-79
2024/02/21 04:18:08;;;;;;;22.80;14.07;;;-5.40;99.00;;;;;;5042566;28;20466;-77
2024/02/21 04:20:35;;;;;;;25.50;13.55;;;-5.50;98.70;;;;;;5053430;28;20074;-80
2024/02/21 04:23:01;;;;;;;18.95;13.57;;;-5.50;98.80;;;;;;5071857;28;20044;-79
2024/02/21 04:25:27;;;;;;;26.80;13.80;;;-5.40;98.90;;;;;;5053542;28;20067;-78
2024/02/21 04:27:53;;;;;;;20.13;14.10;;;-5.40;98.90;;;;;;5071995;28;20029;-78
2024/02/21 04:30:19;;;;;;;22.58;11.93;;;-5.30;99.00;;;;;;5070948;28;20519;-80
2024/02/21 04:32:45;;;;;;;25.73;14.50;;;-5.30;98.90;;;;;;5053966;28;20428;-81
2024/02/21 04:35:10;;;;;;;25.85;15.13;;;-5.30;98.80;;;;;;5070866;28;20020;-79
2024/02/21 04:37:36;;;;;;;16.70;8.90;;;-5.40;98.90;;;;;;5071854;28;20020;-81
2024/02/21 04:40:02;;;;;;;22.00;14.13;;;-5.30;99.00;;;;;;5071708;28;20028;-80
2024/02/21 04:42:28;;;;;;;24.30;14.20;;;-5.30;98.90;;;;;;5073540;28;20013;-80
2024/02/21 04:44:54;;;;;;;19.27;13.25;;;-5.30;99.00;;;;;;5077512;28;20079;-80
2024/02/21 04:47:19;;;;;;;16.67;9.52;;;-5.20;98.90;;;;;;5071893;28;20028;-81
2024/02/21 04:49:46;;;;;;;19.60;11.23;;;-5.20;98.90;;;;;;5053901;28;20470;-80
2024/02/21 04:52:12;;;;;;;22.23;14.25;;;-5.20;98.80;;;;;;5071765;28;20347;-81
2024/02/21 04:54:38;;;;;;;21.52;12.10;;;-5.30;98.80;;;;;;5071758;28;20024;-80
2024/02/21 04:57:04;;;;;;;20.33;11.38;;;-5.20;98.80;;;;;;5071571;28;20028;-80
2024/02/21 04:59:30;;;;;;;15.45;9.55;;;-5.30;98.80;;;;;;5071531;28;20382;-82
2024/02/21 05:01:56;;;;;;;25.45;14.95;;;-5.30;98.90;;;;;;5072086;28;20043;-79
2024/02/21 05:04:22;;;;;;;22.40;13.90;;;-5.20;99.00;;;;;;5071435;28;20091;-77
2024/02/21 05:06:48;;;;;;;20.58;13.07;;;-5.20;99.00;;;;;;5071203;28;20034;-79
2024/02/21 05:09:14;;;;;;;21.17;12.32;;;-5.10;98.90;;;;;;5071866;28;20481;-81
2024/02/21 05:11:40;;;;;;;23.77;14.30;;;-5.10;98.90;;;;;;5072155;28;20036;-80
2024/02/21 05:14:06;;;;;;;23.75;14.52;;;-5.10;98.80;;;;;;5072378;28;20385;-79
2024/02/21 05:16:32;;;;;;;28.70;15.27;;;-5.10;98.90;;;;;;5071958;28;20572;-78
2024/02/21 05:18:58;;;;;;;27.80;16.08;;;-5.10;98.90;;;;;;5057044;28;20112;-78
2024/02/21 05:21:24;;;;;;;24.30;14.50;;;-5.00;98.90;;;;;;5071221;28;20111;-79
2024/02/21 05:23:50;;;;;;;23.75;16.65;;;-5.00;98.90;;;;;;5071040;28;20021;-79
2024/02/21 05:26:26;;;;;;;19.63;11.75;;;-4.90;98.90;;;;;;5071560;28;20047;-78
2024/02/21 05:28:52;;;;;;;21.75;13.13;;;-4.90;98.90;;;;;;5071240;28;20071;-79
2024/02/21 05:31:19;;;;;;;20.65;14.60;;;-4.80;98.90;;;;;;5053053;28;20569;-80
2024/02/21 05:33:45;;;;;;;24.73;12.20;;;-4.80;98.80;;;;;;5071550;28;20466;-78
2024/02/21 05:36:12;;;;;;;23.27;12.85;;;-4.80;98.90;;;;;;5071154;28;20040;-77
2024/02/21 05:38:37;;;;;;;22.02;12.52;;;-4.70;98.80;;;;;;5053082;28;20017;-78
2024/02/21 05:41:04;;;;;;;22.15;14.20;;;-4.70;98.80;;;;;;5071053;28;20036;-78
2024/02/21 05:43:30;;;;;;;22.85;14.07;;;-4.70;98.80;;;;;;5072348;28;20095;-79
2024/02/21 05:45:56;;;;;;;22.95;15.60;;;-4.60;98.80;;;;;;5076499;28;20039;-80
2024/02/21 05:48:25;;;;;;;26.92;14.07;;;-4.60;98.80;;;;;;5074848;28;20430;-80
2024/02/21 05:50:51;;;;;;;19.50;12.25;;;-4.50;98.60;;;;;;5056165;28;20025;-79
2024/02/21 05:53:17;;;;;;;21.52;12.57;;;-4.50;98.70;;;;;;5049525;28;20021;-78
2024/02/21 05:55:43;;;;;;;27.33;13.80;;;-4.50;98.50;;;;;;5055932;28;20035;-81
2024/02/21 05:58:13;;;;;;;23.27;14.48;;;-4.60;98.30;;;;;;5057387;28;20090;-79
2024/02/21 06:00:38;;;;;;;18.60;12.30;;;-4.60;98.40;;;;;;5078193;28;20024;-80
2024/02/21 06:03:04;;;;;;;14.93;9.63;;;-4.60;98.40;;;;;;5057380;28;20119;-81
2024/02/21 06:05:31;;;;;;;19.23;13.10;;;-4.60;98.50;;;;;;5074492;28;20446;-80
2024/02/21 06:07:57;;;;;;;25.20;14.75;;;-4.60;98.50;;;;;;5056851;28;20032;-81
2024/02/21 06:10:23;;;;;;;23.52;15.20;;;-4.60;98.60;;;;;;5057073;28;20028;-79
2024/02/21 06:12:49;;;;;;;21.45;11.63;;;-4.40;98.80;;;;;;5074825;28;20017;-82
2024/02/21 06:15:15;;;;;;;21.92;16.45;;;-4.20;98.60;;;;;;5055829;28;20081;-81
2024/02/21 06:17:40;;;;;;;22.83;13.50;;;-4.20;98.50;;;;;;5074536;28;20021;-81
2024/02/21 06:20:07;;;;;;;22.17;14.88;;;-4.10;98.40;;;;;;5074166;28;20035;-81
2024/02/21 06:22:33;;;;;;;20.63;14.00;;;-4.00;98.50;;;;;;5057920;28;20028;-77
2024/02/21 06:24:59;;;;;;;18.95;9.85;;;-3.90;98.40;;;;;;5074903;28;20123;-78
2024/02/21 06:27:25;;;;;;;20.95;15.57;;;-3.80;98.30;;;;;;5075429;28;20023;-80
2024/02/21 06:29:51;;;;;;;19.70;11.82;;;-3.80;98.20;;;;;;5078990;28;20036;-81
2024/02/21 06:32:17;;;;;;;23.75;15.50;;;-3.90;97.90;;;;;;5073297;28;20059;-83
2024/02/21 06:34:43;;;;;;;19.80;12.73;;;-4.00;97.80;;;;;;5076054;28;20024;-80
2024/02/21 06:37:09;;;;;;;24.00;13.48;;;-3.90;98.10;;;;;;5081144;28;20013;-80
2024/02/21 06:39:37;;;;;;;20.63;15.18;;;-3.90;97.90;;;;;;5062324;28;20071;-81
2024/02/21 06:42:04;;;;;;;13.25;9.27;;;-4.00;97.90;;;;;;5075745;28;20077;-83
2024/02/21 06:44:29;;;;;;;23.92;15.10;;;-3.90;97.90;;;;;;5056426;28;20428;-82
2024/02/21 06:46:55;;;;;;;22.73;14.45;;;-4.00;97.90;;;;;;5058366;28;20044;-82
2024/02/21 06:49:24;;;;;;;23.25;15.73;;;-3.90;98.10;;;;;;5079569;28;20362;-81
2024/02/21 06:51:50;;;;;;;19.40;11.88;;;-3.90;97.70;;;;;;5073776;28;20084;-81
2024/02/21 06:54:16;;;;;;;24.45;14.55;;;-4.00;97.80;;;;;;5073423;28;20044;-83
2024/02/21 06:56:42;;;;;;;22.20;14.07;;;-3.90;98.00;;;;;;5073060;28;20021;-82
2024/02/21 06:59:08;;;;;;;23.33;14.77;;;-3.80;98.10;;;;;;5074223;28;20050;-82
2024/02/21 07:01:33;;;;;;;22.38;13.43;;;-3.80;97.30;;;;;;5073894;28;20135;-83
2024/02/21 07:03:59;;;;;;;16.17;8.63;;;-3.80;97.80;;;;;;5073793;28;20044;-82
2024/02/21 07:06:25;;;;;;;17.55;12.18;;;-3.80;97.40;;;;;;5073760;28;20047;-81
2024/02/21 07:08:51;;;;;;;22.52;15.38;;;-3.90;97.60;;;;;;5073575;28;20032;-82
2024/02/21 07:11:17;;;;;;;22.02;13.32;;;-4.00;97.70;;;;;;5073440;28;20051;-82
2024/02/21 07:13:43;;;;;;;14.88;10.95;;;-4.00;97.80;;;;;;5066378;28;20187;-82
2024/02/21 07:16:09;;;;;;;16.65;10.13;;;-4.00;97.60;;;;;;5074323;28;20078;-81
2024/02/21 07:18:34;;;;;;;19.30;10.77;;;-4.00;97.70;;;;;;5074308;28;20017;-82
2024/02/21 07:21:00;;;;;;;24.40;14.77;;;-3.90;97.90;;;;;;5075184;28;20103;-83
2024/02/21 07:23:26;;;;;;;21.50;13.10;;;-3.80;98.00;;;;;;5075519;28;20021;-81
2024/02/21 07:25:55;;;;;;;20.63;13.23;;;-3.60;98.10;;;;;;5073544;28;20081;-81
2024/02/21 07:28:20;;;;;;;24.63;12.95;;;-3.40;98.00;;;;;;5078019;28;20031;-81
2024/02/21 07:30:46;;;;;;;23.00;13.85;;;-3.30;97.70;;;;;;5077080;28;20037;-82
2024/02/21 07:33:15;;;;;;;21.52;13.82;;;-3.20;97.60;;;;;;5073098;28;20504;-83
2024/02/21 07:35:44;;;;;;;27.05;15.57;;;-3.20;97.50;;;;;;5072780;28;20024;-81
2024/02/21 07:38:14;;;;;;;25.65;12.88;;;-3.10;97.50;;;;;;5054652;28;20047;-82
2024/02/21 07:40:44;;;;;;;16.38;10.05;;;-2.90;97.40;;;;;;5072402;28;20025;-84
2024/02/21 07:43:10;;;;;;;25.75;14.45;;;-2.70;96.90;;;;;;5073252;28;20019;-82
2024/02/21 07:45:35;;;;;;;22.88;13.18;;;-2.90;96.30;;;;;;5073464;28;20021;-83
2024/02/21 07:48:02;;;;;;;21.42;13.18;;;-2.80;96.80;;;;;;5073468;28;20021;-82
2024/02/21 07:50:28;;;;;;;20.02;12.60;;;-2.60;96.70;;;;;;5074007;28;20032;-81
2024/02/21 07:52:54;;;;;;;20.85;12.65;;;-2.50;96.30;;;;;;5055411;28;20020;-81
2024/02/21 07:55:19;;;;;;;16.75;11.65;;;-2.50;96.10;;;;;;5073400;28;20024;-82
2024/02/21 07:57:45;;;;;;;18.27;11.85;;;-2.50;95.40;;;;;;5053276;28;20430;-80
2024/02/21 08:00:17;;;;;;;16.85;10.40;;;-2.50;95.70;;;;;;5055157;28;20497;-82
2024/02/21 08:02:43;;;;;;;19.30;11.50;;;-2.60;95.50;;;;;;5074578;28;20044;-82
2024/02/21 08:05:11;;;;;;;21.88;12.90;;;-2.70;95.70;;;;;;5072984;28;20024;-81
2024/02/21 08:07:37;;;;;;;21.50;13.25;;;-2.50;95.90;;;;;;5078833;28;20013;-82
2024/02/21 08:10:04;;;;;;;20.52;12.25;;;-2.40;95.40;;;;;;5077109;28;20033;-81
2024/02/21 08:12:30;;;;;;;22.60;12.60;;;-2.40;95.20;;;;;;5073135;28;20048;-82
2024/02/21 08:14:55;;;;;;;22.10;12.57;;;-2.60;94.80;;;;;;5055739;28;20482;-82
2024/02/21 08:17:21;;;;;;;23.77;15.25;;;-2.70;95.20;;;;;;5076114;28;20025;-83
2024/02/21 08:19:49;;;;;;;24.88;15.13;;;-2.60;95.80;;;;;;5073151;28;20032;-81
2024/02/21 08:22:14;;;;;;;;;;;-2.20;96.00;;;;;;5054907;28;20048;-80
2024/02/21 08:24:40;;;;;;;26.42;15.35;;;-2.10;94.80;;;;;;5072652;28;19959;-81
2024/02/21 08:27:06;;;;;;;23.67;14.60;;;-2.20;94.90;;;;;;5054875;28;20098;-82
2024/02/21 08:29:32;;;;;;;29.35;15.48;;;-1.90;95.10;;;;;;5072834;28;20116;-82
2024/02/21 08:31:58;;;;;;;24.85;14.60;;;-1.60;95.30;;;;;;5054675;28;20500;-81
2024/02/21 08:34:23;;;;;;;24.20;15.77;;;-1.20;95.10;;;;;;5072686;28;20047;-82
2024/02/21 08:36:49;;;;;;;22.90;14.80;;;-0.50;95.30;;;;;;5072727;28;20043;-81
2024/02/21 08:39:18;;;;;;;22.33;15.32;;;0.30;93.90;;;;;;5072262;28;20025;-83
2024/02/21 08:41:44;;;;;;;22.45;16.38;;;0.40;92.40;;;;;;5072370;28;20092;-80
2024/02/21 08:44:09;;;;;;;30.70;17.52;;;1.00;92.50;;;;;;5071999;28;20017;-81
2024/02/21 08:46:38;;;;;;;26.88;16.20;;;1.20;91.10;;;;;;5073055;28;20029;-81
2024/02/21 08:49:03;;;;;;;28.00;16.45;;;1.30;90.80;;;;;;5072704;28;20058;-82
2024/02/21 08:51:29;;;;;;;20.08;14.10;;;1.20;90.20;;;;;;5054899;28;20028;-82
2024/02/21 08:53:55;;;;;;;23.98;15.30;;;1.00;89.60;;;;;;5072020;28;20386;-81
2024/02/21 08:56:21;;;;;;;26.50;14.77;;;0.50;90.00;;;;;;5072193;28;20036;-81
2024/02/21 08:58:47;;;;;;;22.73;12.93;;;0.20;89.60;;;;;;5073133;28;20021;-82
2024/02/21 09:01:12;;;;;;;21.90;13.90;;;-0.20;90.20;;;;;;5072334;28;20061;-83
2024/02/21 09:03:39;;;;;;;24.60;15.50;;;-0.50;90.60;;;;;;5071818;28;20116;-83
2024/02/21 09:06:09;;;;;;;21.70;13.70;;;-0.60;90.90;;;;;;5072219;28;20074;-83
2024/02/21 09:08:35;;;;;;;25.38;15.27;;;-0.70;91.00;;;;;;5072137;28;20048;-80
2024/02/21 09:11:01;;;;;;;25.52;16.83;;;-0.60;91.30;;;;;;5073554;28;20040;-82
2024/02/21 09:13:27;;;;;;;21.80;15.50;;;-0.40;91.40;;;;;;5079842;28;20052;-83
2024/02/21 09:15:53;;;;;;;24.08;15.38;;;-0.30;91.10;;;;;;5071728;28;20505;-82
2024/02/21 09:18:19;;;;;;;21.60;13.90;;;-0.20;91.00;;;;;;5053799;28;20116;-83
2024/02/21 09:20:45;;;;;;;21.48;16.10;;;0.00;90.90;;;;;;5073701;28;20024;-83
2024/02/21 09:23:12;;;;;;;26.02;15.73;;;0.20;90.60;;;;;;5075844;28;20474;-82
2024/02/21 09:25:38;;;;;;;24.52;15.63;;;0.60;90.90;;;;;;5075521;28;20101;-84
2024/02/21 09:28:06;;;;;;;25.52;16.77;;;1.10;90.40;;;;;;5075779;28;20020;-83
2024/02/21 09:30:32;;;;;;;22.85;16.25;;;1.20;89.30;;;;;;5075270;28;20501;-81
2024/02/21 09:32:59;;;;;;;24.25;15.80;;;1.80;90.30;;;;;;5075381;28;20099;-83
2024/02/21 09:35:27;;;;;;;18.95;10.95;;;2.30;87.90;;;;;;5056690;28;20428;-84
2024/02/21 09:37:53;;;;;;;20.40;15.15;;;1.80;83.20;;;;;;5076008;28;20028;-83
2024/02/21 09:40:20;;;;;;;22.27;15.70;;;1.10;85.70;;;;;;5076346;28;20028;-85
2024/02/21 09:42:48;;;;;;;19.75;11.88;;;0.70;86.30;;;;;;5058983;28;20465;-82
2024/02/21 09:45:19;;;;;;;23.83;15.20;;;0.70;86.80;;;;;;5077497;28;20047;-83
2024/02/21 09:48:10;;;;;;;23.45;14.50;;;0.40;87.10;;;;;;5065914;28;20016;-84
2024/02/21 09:50:40;;;;;;;21.10;14.50;;;0.30;87.60;;;;;;5063030;28;20046;-82
2024/02/21 09:53:07;;;;;;;24.35;16.05;;;0.30;88.10;;;;;;5077286;28;20075;-82
2024/02/21 09:55:40;;;;;;;21.60;13.20;;;0.30;88.60;;;;;;5075952;28;20428;-83
2024/02/21 09:58:07;;;;;;;23.38;14.57;;;0.30;88.10;;;;;;5076565;28;20052;-83
2024/02/21 10:00:33;;;;;;;22.48;13.85;;;-0.10;87.60;;;;;;5076789;28;20028;-81
2024/02/21 10:02:59;;;;;;;22.73;14.95;;;-0.40;89.00;;;;;;5057877;28;20041;-84
2024/02/21 10:05:25;;;;;;;19.10;13.30;;;-0.30;90.00;;;;;;5075022;28;20028;-84
2024/02/21 10:07:52;;;;;;;22.92;14.57;;;-0.20;89.40;;;;;;5074951;28;20135;-82
2024/02/21 10:10:21;;;;;;;24.02;15.93;;;-0.10;90.00;;;;;;5056564;28;20036;-83
2024/02/21 10:12:51;;;;;;;21.23;13.60;;;0.00;89.80;;;;;;5074896;28;20025;-81
2024/02/21 10:15:22;;;;;;;22.52;13.85;;;0.20;89.60;;;;;;5076188;28;20489;-82
2024/02/21 10:17:48;;;;;;;19.40;12.25;;;0.20;89.60;;;;;;5056851;28;20021;-83
2024/02/21 10:20:17;;;;;;;17.65;11.90;;;0.20;89.50;;;;;;5056934;28;20024;-82
2024/02/21 10:22:43;;;;;;;22.00;14.32;;;0.00;88.90;;;;;;5074823;28;20080;-82
2024/02/21 10:25:09;;;;;;;21.00;13.38;;;-0.10;89.30;;;;;;5060004;28;20393;-82
2024/02/21 10:27:37;;;;;;;19.08;12.20;;;-0.20;90.00;;;;;;5078320;28;20070;-81
2024/02/21 10:30:04;;;;;;;20.80;13.43;;;-0.50;89.30;;;;;;5074150;28;20068;-83
2024/02/21 10:32:30;;;;;;;20.85;11.15;;;-0.80;90.00;;;;;;5073153;28;20020;-82
2024/02/21 10:35:05;;;;;;;17.05;10.20;;;-0.90;90.50;;;;;;5074402;28;20025;-82
2024/02/21 10:37:34;;;;;;;22.05;13.32;;;-1.00;90.70;;;;;;5075191;28;20020;-82
2024/02/21 10:40:00;;;;;;;22.95;16.58;;;-1.20;90.70;;;;;;5074497;28;20377;-83
2024/02/21 10:42:34;;;;;;;22.27;13.07;;;-1.00;91.10;;;;;;5056008;28;20021;-83
2024/02/21 10:45:04;;;;;;;19.92;13.35;;;-0.90;90.80;;;;;;5074629;28;20032;-84
2024/02/21 10:47:32;;;;;;;16.45;12.63;;;-0.90;91.00;;;;;;5052743;28;20020;-83
2024/02/21 10:50:07;;;;;;;20.77;12.75;;;-0.80;91.20;;;;;;5064559;28;20094;-83
2024/02/21 10:52:40;;;;;;;18.98;12.85;;;-0.70;91.20;;;;;;5074515;28;20103;-83
2024/02/21 10:55:16;;;;;;;19.02;10.55;;;-0.50;91.20;;;;;;5058896;28;20020;-83
2024/02/21 10:57:42;;;;;;;16.75;11.95;;;-0.40;90.90;;;;;;5080539;28;20017;-83
2024/02/21 11:00:12;;;;;;;19.70;12.60;;;-0.50;90.80;;;;;;5077178;28;20028;-83
2024/02/21 11:02:39;;;;;;;19.10;12.77;;;-0.60;90.80;;;;;;5051503;28;20037;-83
2024/02/21 11:05:06;;;;;;;17.67;12.93;;;-0.50;91.00;;;;;;5035100;28;20043;-83
2024/02/21 11:07:37;;;;;;;19.13;13.15;;;-0.40;91.10;;;;;;5035304;28;20072;-84
2024/02/21 11:10:03;;;;;;;18.73;11.85;;;-0.40;90.80;;;;;;5034907;28;20516;-83
2024/02/21 11:12:32;;;;;;;19.17;13.47;;;-0.40;90.70;;;;;;5052016;28;20025;-83
2024/02/21 11:15:08;;;;;;;17.25;12.55;;;-0.60;90.70;;;;;;5053183;28;20045;-84
2024/02/21 11:17:34;;;;;;;19.13;11.52;;;-0.80;91.00;;;;;;5035952;28;20036;-83
2024/02/21 11:20:12;;;;;;;17.48;11.30;;;-0.70;91.10;;;;;;5044390;28;20029;-83
2024/02/21 11:22:42;;;;;;;16.83;10.10;;;-0.80;90.90;;;;;;5052397;28;20390;-84
2024/02/21 11:25:11;;;;;;;14.88;9.25;;;-1.00;90.90;;;;;;5036160;28;20536;-83
2024/02/21 11:27:38;;;;;;;18.20;11.30;;;-1.00;91.10;;;;;;5052416;28;20047;-83
2024/02/21 11:30:05;;;;;;;18.83;11.93;;;-1.20;91.20;;;;;;5052128;28;20037;-83
2024/02/21 11:32:31;;;;;;;;;;;-1.20;91.40;;;;;;5035769;28;20020;-83
2024/02/21 11:35:04;;;;;;;15.52;8.95;;;-1.20;91.30;;;;;;5053384;28;19944;-82
2024/02/21 11:37:36;;;;;;;22.38;12.90;;;-1.20;91.60;;;;;;5055725;28;20502;-82
2024/02/21 11:40:03;;;;;;;21.25;13.50;;;-1.20;91.70;;;;;;5067808;28;20043;-83
2024/02/21 11:42:30;;;;;;;15.48;10.93;;;-1.00;91.90;;;;;;5055286;28;20025;-84
2024/02/21 11:44:57;;;;;;;16.73;10.75;;;-0.90;91.80;;;;;;5073060;28;20073;-83
2024/02/21 11:47:24;;;;;;;15.60;10.33;;;-1.10;91.00;;;;;;5073318;28;20537;-83
2024/02/21 11:49:53;;;;;;;16.25;10.68;;;-1.40;91.40;;;;;;5073735;28;20029;-80
2024/02/21 11:52:24;;;;;;;11.52;8.15;;;-1.50;91.80;;;;;;5073093;28;20025;-83
2024/02/21 11:54:51;;;;;;;18.40;11.57;;;-1.70;91.90;;;;;;5073677;28;20400;-84
2024/02/21 11:57:18;;;;;;;16.42;11.10;;;-1.90;92.30;;;;;;5076022;28;20028;-84
2024/02/21 11:59:45;;;;;;;17.07;10.33;;;-1.90;92.50;;;;;;5073699;28;20047;-84
2024/02/21 12:02:12;;;;;;;17.00;11.80;;;-1.90;92.60;;;;;;5055429;28;20028;-84
2024/02/21 12:04:39;;;;;;;11.57;8.95;;;-1.90;92.60;;;;;;5073168;28;20071;-84
2024/02/21 12:07:05;;;;;;;17.65;11.77;;;-1.90;92.40;;;;;;5072696;28;20409;-84
2024/02/21 12:09:33;;;;;;;19.92;10.55;;;-2.20;92.80;;;;;;5073792;28;20122;-84
2024/02/21 12:12:03;;;;;;;17.05;12.45;;;-2.30;93.10;;;;;;5057635;28;20398;-84
2024/02/21 12:14:30;;;;;;;19.48;10.80;;;-2.20;93.40;;;;;;5055589;28;20025;-84
2024/02/21 12:16:56;;;;;;;15.70;9.77;;;-2.10;93.40;;;;;;5074294;28;20042;-83
2024/02/21 12:19:22;;;;;;;10.60;6.53;;;-2.00;93.30;;;;;;5040940;28;20054;-84
2024/02/21 12:21:54;;;;;;;17.40;11.43;;;-1.90;93.20;;;;;;5077717;28;20025;-83
2024/02/21 12:24:27;;;;;;;16.52;11.13;;;-2.10;93.30;;;;;;5060673;28;20025;-83
2024/02/21 12:26:54;;;;;;;19.95;13.98;;;-2.10;93.50;;;;;;5059280;28;20036;-83
2024/02/21 12:29:23;;;;;;;20.38;12.57;;;-2.10;93.60;;;;;;5074188;28;20421;-84